Time,TemperatureF,DewpointF,PressureIn,WindDirection,WindDirectionDegrees,WindSpeedMPH,WindSpeedGustMPH,Humidity,HourlyPrecipIn,Conditions,Clouds,dailyrainin,SolarRadiationWatts/m^2,SoftwareType,DateUTC
2013-10-20 00:00:00,37.9,36.0,29.78,WSW,245,0.0,1.0,91,0.00,,,0.06,0,weatherlink.com 1.10,2013-10-20 05:00:00,
2013-10-20 00:15:00,37.7,35.0,29.78,WSW,245,4.0,5.0,90,0.00,,,0.00,0,weatherlink.com 1.10,2013-10-20 05:15:00,
2013-10-20 00:30:00,37.7,35.0,29.78,WSW,245,0.0,5.0,91,0.00,,,0.00,0,weatherlink.com 1.10,2013-10-20 05:30:00,
2013-10-20 00:45:00,37.6,35.0,29.78,WSW,245,2.0,3.0,90,0.00,,,0.00,0,weatherlink.com 1.10,2013-10-20 05:45:00,
2013-10-20 01:00:00,37.4,35.0,29.78,WSW,245,0.0,4.0,91,0.00,,,0.00,0,weatherlink.com 1.10,2013-10-20 06:00:00,
2013-10-20 01:15:00,37.6,36.0,29.78,WSW,245,2.0,4.0,92,0.00,,,0.00,0,weatherlink.com 1.10,2013-10-20 06:15:00,
2013-10-20 01:30:00,37.9,36.0,29.78,WSW,245,0.0,5.0,91,0.00,,,0.00,0,weatherlink.com 1.10,2013-10-20 06:30:00,
2013-10-20 01:45:00,37.7,35.0,29.78,WSW,245,0.0,3.0,91,0.00,,,0.00,0,weatherlink.com 1.10,2013-10-20 06:45:00,
2013-10-20 02:00:00,37.1,35.0,29.78,WSW,245,2.0,6.0,91,0.00,,,0.00,0,weatherlink.com 1.10,2013-10-20 07:00:00,
2013-10-20 02:15:00,36.7,34.0,29.78,WSW,245,5.0,5.0,91,0.00,,,0.00,0,weatherlink.com 1.10,2013-10-20 07:15:00,
2013-10-20 02:30:00,36.2,34.0,29.77,WNW,290,4.0,6.0,91,0.00,,,0.00,0,weatherlink.com 1.10,2013-10-20 07:30:00,
2013-10-20 02:45:00,35.7,33.0,29.78,WNW,290,1.0,5.0,91,0.00,,,0.00,0,weatherlink.com 1.10,2013-10-20 07:45:00,
2013-10-20 03:00:00,35.9,34.0,29.78,WNW,290,2.0,4.0,91,0.00,,,0.00,0,weatherlink.com 1.10,2013-10-20 08:00:00,
2013-10-20 03:15:00,35.6,33.0,29.78,WNW,290,2.0,4.0,91,0.00,,,0.00,0,weatherlink.com 1.10,2013-10-20 08:15:00,
2013-10-20 03:30:00,35.6,33.0,29.78,WNW,290,1.0,3.0,91,0.00,,,0.00,0,weatherlink.com 1.10,2013-10-20 08:30:00,
2013-10-20 03:45:00,35.3,33.0,29.78,WNW,290,4.0,6.0,91,0.00,,,0.00,0,weatherlink.com 1.10,2013-10-20 08:45:00,
2013-10-20 04:00:00,35.0,32.0,29.79,WNW,290,3.0,3.0,90,0.00,,,0.00,0,weatherlink.com 1.10,2013-10-20 09:00:00,
2013-10-20 04:15:00,34.9,32.0,29.79,WNW,290,1.0,4.0,90,0.00,,,0.00,0,weatherlink.com 1.10,2013-10-20 09:15:00,
2013-10-20 04:30:00,34.8,32.0,29.79,WNW,290,0.0,4.0,90,0.00,,,0.00,0,weatherlink.com 1.10,2013-10-20 09:30:00,
2013-10-20 04:45:00,34.7,32.0,29.79,WNW,290,2.0,4.0,90,0.00,,,0.00,0,weatherlink.com 1.10,2013-10-20 09:45:00,
2013-10-20 05:00:00,34.4,32.0,29.79,WNW,290,0.0,4.0,90,0.00,,,0.00,0,weatherlink.com 1.10,2013-10-20 10:00:00,
2013-10-20 05:15:00,34.3,32.0,29.80,WNW,290,0.0,2.0,90,0.00,,,0.00,0,weatherlink.com 1.10,2013-10-20 10:15:00,
2013-10-20 05:30:00,34.4,32.0,29.80,WNW,290,0.0,5.0,90,0.00,,,0.00,0,weatherlink.com 1.10,2013-10-20 10:30:00,
2013-10-20 05:45:00,34.2,31.0,29.80,WNW,290,1.0,3.0,89,0.00,,,0.00,0,weatherlink.com 1.10,2013-10-20 10:45:00,
2013-10-20 06:00:00,32.6,30.0,29.80,WNW,290,1.0,3.0,89,0.00,,,0.00,0,weatherlink.com 1.10,2013-10-20 11:00:00,
2013-10-20 06:15:00,33.5,31.0,29.79,WNW,290,0.0,3.0,91,0.00,,,0.00,0,weatherlink.com 1.10,2013-10-20 11:15:00,
2013-10-20 06:30:00,33.4,31.0,29.79,WNW,290,0.0,1.0,90,0.00,,,0.00,0,weatherlink.com 1.10,2013-10-20 11:30:00,
2013-10-20 06:45:00,32.3,30.0,29.79,WNW,290,0.0,1.0,90,0.00,,,0.00,0,weatherlink.com 1.10,2013-10-20 11:45:00,
2013-10-20 07:00:00,31.9,30.0,29.79,WNW,290,0.0,0.0,91,0.00,,,0.00,0,weatherlink.com 1.10,2013-10-20 12:00:00,
2013-10-20 07:15:00,31.6,29.0,29.80,WNW,290,0.0,0.0,90,0.00,,,0.00,0,weatherlink.com 1.10,2013-10-20 12:15:00,
2013-10-20 07:30:00,31.3,29.0,29.79,WNW,290,0.0,2.0,91,0.00,,,0.00,21,weatherlink.com 1.10,2013-10-20 12:30:00,
2013-10-20 07:45:00,32.0,30.0,29.79,WNW,290,0.0,0.0,91,0.00,,,0.00,21,weatherlink.com 1.10,2013-10-20 12:45:00,
2013-10-20 08:00:00,32.4,30.0,29.79,WNW,290,0.0,0.0,91,0.00,,,0.00,49,weatherlink.com 1.10,2013-10-20 13:00:00,
2013-10-20 08:15:00,32.5,30.0,29.80,WNW,290,0.0,0.0,91,0.00,,,0.00,18,weatherlink.com 1.10,2013-10-20 13:15:00,
2013-10-20 08:30:00,32.8,31.0,29.80,WNW,290,0.0,0.0,92,0.00,,,0.00,49,weatherlink.com 1.10,2013-10-20 13:30:00,
2013-10-20 08:45:00,33.5,32.0,29.80,WNW,290,2.0,4.0,92,0.00,,,0.00,137,weatherlink.com 1.10,2013-10-20 13:45:00,
2013-10-20 09:00:00,35.1,33.0,29.79,West,281,2.0,4.0,92,0.00,,,0.00,142,weatherlink.com 1.10,2013-10-20 14:00:00,
2013-10-20 09:16:00,36.3,34.0,29.80,West,281,0.0,4.0,92,0.00,,,0.00,118,weatherlink.com 1.10,2013-10-20 14:16:00,
2013-10-20 09:31:00,38.0,35.0,29.79,East,94,3.0,7.0,90,0.00,,,0.00,281,weatherlink.com 1.10,2013-10-20 14:31:00,
2013-10-20 09:46:00,39.8,37.0,29.79,ESE,105,7.0,8.0,88,0.00,,,0.00,214,weatherlink.com 1.10,2013-10-20 14:46:00,
2013-10-20 10:01:00,40.4,36.0,29.79,ESE,116,5.0,8.0,85,0.00,,,0.00,146,weatherlink.com 1.10,2013-10-20 15:01:00,
2013-10-20 10:16:00,40.3,35.0,29.80,SE,136,6.0,8.0,82,0.00,,,0.00,65,weatherlink.com 1.10,2013-10-20 15:16:00,
2013-10-20 10:31:00,40.2,36.0,29.80,SE,140,8.0,10.0,85,0.00,,,0.00,56,weatherlink.com 1.10,2013-10-20 15:31:00,
2013-10-20 10:46:00,40.4,37.0,29.78,SE,138,9.0,12.0,87,0.00,,,0.00,213,weatherlink.com 1.10,2013-10-20 15:46:00,
2013-10-20 11:01:00,41.4,38.0,29.77,ESE,122,14.0,15.0,86,0.00,,,0.00,255,weatherlink.com 1.10,2013-10-20 16:01:00,
2013-10-20 11:16:00,42.3,38.0,29.77,ESE,120,11.0,15.0,83,0.00,,,0.00,220,weatherlink.com 1.10,2013-10-20 16:16:00,
2013-10-20 11:31:00,43.4,39.0,29.77,ESE,120,8.0,11.0,85,0.00,,,0.00,427,weatherlink.com 1.10,2013-10-20 16:31:00,
2013-10-20 11:46:00,45.0,40.0,29.75,ESE,122,12.0,13.0,83,0.00,,,0.00,339,weatherlink.com 1.10,2013-10-20 16:46:00,
2013-10-20 12:01:00,45.3,40.0,29.76,SSE,155,5.0,14.0,80,0.01,,,0.01,165,weatherlink.com 1.10,2013-10-20 17:01:00,
2013-10-20 12:16:00,46.1,40.0,29.75,SSE,157,12.0,14.0,79,0.01,,,0.01,192,weatherlink.com 1.10,2013-10-20 17:16:00,
2013-10-20 12:31:00,46.8,40.0,29.73,ESE,122,13.0,16.0,76,0.01,,,0.01,190,weatherlink.com 1.10,2013-10-20 17:31:00,
2013-10-20 12:46:00,47.3,40.0,29.71,SE,136,13.0,16.0,76,0.01,,,0.01,360,weatherlink.com 1.10,2013-10-20 17:46:00,
2013-10-20 13:01:00,47.3,39.0,29.71,SE,146,14.0,19.0,74,0.00,,,0.01,171,weatherlink.com 1.10,2013-10-20 18:01:00,
2013-10-20 13:16:00,47.1,40.0,29.71,SE,134,8.0,18.0,76,0.00,,,0.01,123,weatherlink.com 1.10,2013-10-20 18:16:00,
2013-10-20 13:31:00,47.8,40.0,29.70,SSE,155,13.0,17.0,75,0.00,,,0.01,179,weatherlink.com 1.10,2013-10-20 18:31:00,
2013-10-20 13:46:00,49.0,41.0,29.69,SE,143,14.0,19.0,74,0.00,,,0.01,250,weatherlink.com 1.10,2013-10-20 18:46:00,
2013-10-20 14:01:00,50.1,42.0,29.68,SE,137,12.0,17.0,73,0.00,,,0.01,207,weatherlink.com 1.10,2013-10-20 19:01:00,
2013-10-20 14:16:00,50.7,42.0,29.68,SSE,159,10.0,16.0,72,0.00,,,0.01,220,weatherlink.com 1.10,2013-10-20 19:16:00,
2013-10-20 14:31:00,51.9,43.0,29.69,South,175,11.0,13.0,71,0.00,,,0.01,197,weatherlink.com 1.10,2013-10-20 19:31:00,
2013-10-20 14:46:00,53.2,44.0,29.68,South,173,9.0,15.0,71,0.00,,,0.01,206,weatherlink.com 1.10,2013-10-20 19:46:00,
2013-10-20 15:01:00,53.5,45.0,29.68,South,184,10.0,18.0,72,0.00,,,0.01,223,weatherlink.com 1.10,2013-10-20 20:01:00,
2013-10-20 15:32:00,53.9,43.0,29.67,South,186,17.0,19.0,68,0.00,,,0.01,86,weatherlink.com 1.10,2013-10-20 20:32:00,
2013-10-20 15:47:00,54.1,43.0,29.68,SSW,211,11.0,17.0,67,0.00,,,0.01,88,weatherlink.com 1.10,2013-10-20 20:47:00,
2013-10-20 16:02:00,54.2,44.0,29.68,SSW,209,13.0,19.0,68,0.00,,,0.01,93,weatherlink.com 1.10,2013-10-20 21:02:00,
2013-10-20 16:17:00,53.6,44.0,29.69,SW,219,16.0,19.0,69,0.00,,,0.01,62,weatherlink.com 1.10,2013-10-20 21:17:00,
2013-10-20 16:32:00,53.3,44.0,29.69,SW,215,12.0,16.0,71,0.00,,,0.01,62,weatherlink.com 1.10,2013-10-20 21:32:00,
2013-10-20 16:47:00,52.7,44.0,29.70,SW,214,10.0,13.0,73,0.00,,,0.01,42,weatherlink.com 1.10,2013-10-20 21:47:00,
2013-10-20 17:02:00,52.0,45.0,29.70,SSW,211,7.0,12.0,77,0.00,,,0.01,33,weatherlink.com 1.10,2013-10-20 22:02:00,
2013-10-20 17:17:00,51.4,45.0,29.69,SSW,212,8.0,12.0,79,0.00,,,0.01,25,weatherlink.com 1.10,2013-10-20 22:17:00,
2013-10-20 17:32:00,51.1,45.0,29.69,SW,220,8.0,11.0,81,0.00,,,0.01,12,weatherlink.com 1.10,2013-10-20 22:32:00,
2013-10-20 17:47:00,51.0,45.0,29.69,SW,215,7.0,11.0,81,0.00,,,0.01,21,weatherlink.com 1.10,2013-10-20 22:47:00,
2013-10-20 18:02:00,51.0,46.0,29.68,SW,219,7.0,10.0,82,0.01,,,0.02,9,weatherlink.com 1.10,2013-10-20 23:02:00,
2013-10-20 18:17:00,50.5,46.0,29.67,SW,216,7.0,8.0,83,0.01,,,0.02,0,weatherlink.com 1.10,2013-10-20 23:17:00,
2013-10-20 18:32:00,49.0,44.0,29.68,SW,216,7.0,8.0,83,0.01,,,0.02,0,weatherlink.com 1.10,2013-10-20 23:32:00,
2013-10-20 18:47:00,47.6,43.0,29.69,SW,216,7.0,8.0,85,0.01,,,0.02,0,weatherlink.com 1.10,2013-10-20 23:47:00,
2013-10-20 19:02:00,46.7,43.0,29.70,SW,216,7.0,8.0,85,0.00,,,0.02,0,weatherlink.com 1.10,2013-10-21 00:02:00,
2013-10-20 19:17:00,46.6,42.0,29.70,SW,216,7.0,8.0,85,0.00,,,0.02,0,weatherlink.com 1.10,2013-10-21 00:17:00,
2013-10-20 19:32:00,45.7,42.0,29.70,SW,214,8.0,9.0,87,0.00,,,0.02,0,weatherlink.com 1.10,2013-10-21 00:32:00,
2013-10-20 19:47:00,47.3,43.0,29.71,SW,218,9.0,12.0,86,0.00,,,0.02,0,weatherlink.com 1.10,2013-10-21 00:47:00,
2013-10-20 20:02:00,48.4,44.0,29.71,SW,221,10.0,12.0,84,0.00,,,0.02,0,weatherlink.com 1.10,2013-10-21 01:02:00,
2013-10-20 20:17:00,48.2,43.0,29.71,SW,217,11.0,13.0,83,0.00,,,0.02,0,weatherlink.com 1.10,2013-10-21 01:17:00,
2013-10-20 20:32:00,49.2,44.0,29.71,SW,225,11.0,15.0,82,0.00,,,0.02,0,weatherlink.com 1.10,2013-10-21 01:32:00,
2013-10-20 20:47:00,49.1,44.0,29.71,SW,227,13.0,15.0,81,0.00,,,0.02,0,weatherlink.com 1.10,2013-10-21 01:47:00,
2013-10-20 21:02:00,49.3,44.0,29.71,SW,228,10.0,15.0,82,0.00,,,0.02,0,weatherlink.com 1.10,2013-10-21 02:02:00,
2013-10-20 21:17:00,49.3,43.0,29.72,SW,236,10.0,14.0,80,0.00,,,0.02,0,weatherlink.com 1.10,2013-10-21 02:17:00,
2013-10-20 21:32:00,50.4,44.0,29.72,WSW,253,10.0,18.0,78,0.00,,,0.02,0,weatherlink.com 1.10,2013-10-21 02:32:00,
2013-10-20 21:47:00,50.9,44.0,29.73,West,280,7.0,18.0,76,0.00,,,0.02,0,weatherlink.com 1.10,2013-10-21 02:47:00,
2013-10-20 22:02:00,50.2,43.0,29.73,West,261,6.0,12.0,77,0.00,,,0.02,0,weatherlink.com 1.10,2013-10-21 03:02:00,
2013-10-20 22:17:00,49.5,43.0,29.73,WNW,295,4.0,9.0,77,0.00,,,0.02,0,weatherlink.com 1.10,2013-10-21 03:17:00,
2013-10-20 22:32:00,49.3,42.0,29.73,West,273,6.0,10.0,75,0.00,,,0.02,0,weatherlink.com 1.10,2013-10-21 03:32:00,
2013-10-20 22:47:00,48.8,42.0,29.74,West,281,0.0,11.0,76,0.00,,,0.02,0,weatherlink.com 1.10,2013-10-21 03:47:00,
2013-10-20 23:02:00,48.9,41.0,29.74,WNW,284,6.0,9.0,75,0.00,,,0.02,0,weatherlink.com 1.10,2013-10-21 04:02:00,
2013-10-20 23:17:00,49.1,42.0,29.74,WSW,257,3.0,9.0,75,0.00,,,0.02,0,weatherlink.com 1.10,2013-10-21 04:17:00,
2013-10-20 23:32:00,49.0,41.0,29.75,WSW,257,3.0,10.0,74,0.00,,,0.02,0,weatherlink.com 1.10,2013-10-21 04:32:00,
2013-10-20 23:47:00,48.7,41.0,29.75,WSW,246,9.0,13.0,75,0.00,,,0.02,0,weatherlink.com 1.10,2013-10-21 04:47:00,